createdAt,value
2023-03-16T00:02:15.911Z,10.77
2023-03-16T00:04:43.140Z,11.20
2023-03-16T00:07:11.625Z,11.60
2023-03-16T00:09:43.289Z,11.37
2023-03-16T00:12:16.365Z,11.37
2023-03-16T00:14:49.028Z,11.73
2023-03-16T00:17:19.517Z,11.47
2023-03-16T00:19:57.356Z,11.63
2023-03-16T00:22:30.836Z,11.47
2023-03-16T00:24:58.623Z,11.67
2023-03-16T00:27:27.978Z,11.70
2023-03-16T00:29:58.040Z,11.47
2023-03-16T00:32:46.343Z,11.90
2023-03-16T00:35:15.986Z,11.80
2023-03-16T00:37:45.522Z,11.80
2023-03-16T00:40:13.090Z,11.57
2023-03-16T00:42:40.280Z,11.67
2023-03-16T00:45:10.859Z,11.53
2023-03-16T00:47:38.091Z,11.70
2023-03-16T00:50:05.552Z,11.57
2023-03-16T00:52:35.469Z,11.80
2023-03-16T00:55:05.081Z,11.87
2023-03-16T00:57:35.006Z,11.57
2023-03-16T01:00:10.812Z,11.90
2023-03-16T01:02:38.098Z,11.93
2023-03-16T01:05:05.976Z,11.97
2023-03-16T01:07:36.797Z,11.67
2023-03-16T01:10:07.810Z,11.90
2023-03-16T01:12:35.089Z,12.17
2023-03-16T01:15:02.638Z,12.20
2023-03-16T01:17:29.826Z,12.17
2023-03-16T01:19:56.954Z,12.17
2023-03-16T01:22:24.195Z,11.80
2023-03-16T01:24:51.127Z,11.97
2023-03-16T01:27:18.497Z,11.80
2023-03-16T01:29:45.648Z,12.20
2023-03-16T01:32:14.320Z,12.10
2023-03-16T01:34:41.789Z,11.87
2023-03-16T01:37:13.954Z,11.90
2023-03-16T01:39:50.831Z,12.40
2023-03-16T01:42:19.014Z,12.00
2023-03-16T01:44:55.992Z,11.93
2023-03-16T01:47:28.372Z,11.93
2023-03-16T01:49:57.720Z,11.83
2023-03-16T01:52:33.705Z,12.27
2023-03-16T01:55:09.882Z,12.07
2023-03-16T01:57:42.813Z,12.17
2023-03-16T02:00:21.074Z,11.90
2023-03-16T02:03:11.882Z,12.20
2023-03-16T02:05:53.235Z,12.13
2023-03-16T02:08:27.324Z,12.33
2023-03-16T02:10:57.072Z,12.40
2023-03-16T02:13:37.015Z,12.20
2023-03-16T02:16:07.548Z,12.37
2023-03-16T02:18:35.534Z,12.10
2023-03-16T02:21:16.485Z,12.30
2023-03-16T02:23:46.403Z,12.17
2023-03-16T02:26:33.664Z,12.13
2023-03-16T02:29:06.922Z,12.00
2023-03-16T02:31:34.556Z,12.17
2023-03-16T02:34:02.802Z,12.43
2023-03-16T02:36:30.843Z,12.17
2023-03-16T02:39:02.501Z,12.23
2023-03-16T02:41:32.991Z,12.47
2023-03-16T02:44:11.838Z,11.73
2023-03-16T02:46:39.733Z,11.63
2023-03-16T02:49:27.816Z,12.23
2023-03-16T02:51:55.282Z,12.00
2023-03-16T02:54:22.655Z,12.03
2023-03-16T02:56:51.626Z,12.17
2023-03-16T02:59:19.207Z,11.87
2023-03-16T03:01:46.567Z,11.80
2023-03-16T03:04:13.736Z,11.73
2023-03-16T03:06:41.930Z,11.87
2023-03-16T03:09:13.844Z,11.77
2023-03-16T03:11:42.211Z,12.20
2023-03-16T03:14:09.271Z,12.00
2023-03-16T03:16:39.717Z,12.17
2023-03-16T03:19:07.460Z,12.30
2023-03-16T03:21:37.600Z,11.93
2023-03-16T03:24:06.225Z,11.90
2023-03-16T03:26:34.465Z,12.17
2023-03-16T03:29:03.073Z,11.90
2023-03-16T03:31:32.369Z,11.73
2023-03-16T03:33:59.964Z,11.77
2023-03-16T03:36:27.080Z,12.07
2023-03-16T03:38:56.107Z,11.40
2023-03-16T03:41:28.160Z,11.67
2023-03-16T03:43:58.161Z,11.50
2023-03-16T03:46:26.197Z,11.97
2023-03-16T03:48:54.554Z,11.70
2023-03-16T03:51:26.626Z,11.77
2023-03-16T03:54:00.834Z,11.50
2023-03-16T03:56:46.213Z,11.90
2023-03-16T03:59:16.386Z,11.60
2023-03-16T04:02:13.687Z,11.70
2023-03-16T04:04:53.087Z,11.07
2023-03-16T04:07:21.219Z,11.50
2023-03-16T04:09:50.593Z,11.30
2023-03-16T04:12:35.926Z,10.97
2023-03-16T04:15:04.658Z,11.57
2023-03-16T04:17:37.140Z,11.47
2023-03-16T04:20:14.533Z,11.67
2023-03-16T04:22:48.022Z,11.90
2023-03-16T04:25:18.291Z,11.50
2023-03-16T04:27:49.192Z,11.60
2023-03-16T04:30:17.469Z,11.53
2023-03-16T04:32:51.358Z,11.50
2023-03-16T04:35:20.750Z,11.73
2023-03-16T04:37:51.707Z,11.87
2023-03-16T04:40:22.926Z,11.30
2023-03-16T04:42:56.662Z,11.53
2023-03-16T04:45:24.436Z,11.80
2023-03-16T04:47:56.843Z,11.70
2023-03-16T04:50:29.029Z,11.70
2023-03-16T04:53:01.324Z,11.57
2023-03-16T04:55:29.949Z,12.10
2023-03-16T04:58:02.914Z,12.37
2023-03-16T05:00:34.468Z,12.00
2023-03-16T05:03:32.345Z,12.03
2023-03-16T05:05:59.873Z,12.07
2023-03-16T05:08:29.789Z,11.97
2023-03-16T05:10:58.403Z,11.90
2023-03-16T05:13:27.857Z,11.53
2023-03-16T05:15:58.338Z,11.80
2023-03-16T05:18:35.972Z,11.67
2023-03-16T05:21:03.673Z,11.60
2023-03-16T05:23:41.684Z,11.70
2023-03-16T05:26:09.182Z,12.17
2023-03-16T05:28:38.522Z,12.47
2023-03-16T05:31:09.305Z,11.97
2023-03-16T05:33:42.174Z,12.10
2023-03-16T05:36:13.901Z,12.40
2023-03-16T05:38:46.489Z,12.83
2023-03-16T05:41:24.290Z,12.60
2023-03-16T05:44:14.651Z,12.43
2023-03-16T05:47:00.791Z,12.40
2023-03-16T05:49:32.117Z,12.07
2023-03-16T05:52:05.602Z,12.50
2023-03-16T05:54:35.543Z,12.40
2023-03-16T05:57:02.765Z,12.67
2023-03-16T05:59:30.423Z,12.90
2023-03-16T06:02:00.886Z,12.90
2023-03-16T06:04:28.410Z,12.90
2023-03-16T06:06:55.493Z,13.20
2023-03-16T06:09:26.624Z,12.73
2023-03-16T06:11:57.058Z,13.03
2023-03-16T06:14:25.056Z,12.97
2023-03-16T06:16:54.634Z,13.40
2023-03-16T06:19:22.894Z,13.27
2023-03-16T06:21:55.157Z,12.90
2023-03-16T06:24:23.754Z,13.60
2023-03-16T06:26:52.110Z,13.10
2023-03-16T06:29:21.442Z,13.40
2023-03-16T06:31:48.693Z,13.13
2023-03-16T06:34:15.837Z,13.50
2023-03-16T06:36:43.223Z,13.20
2023-03-16T06:39:14.537Z,13.63
2023-03-16T06:41:46.078Z,13.50
2023-03-16T06:44:16.624Z,13.07
2023-03-16T06:46:56.722Z,12.80
2023-03-16T06:49:23.929Z,12.90
2023-03-16T06:51:51.460Z,12.93
2023-03-16T06:54:20.067Z,12.40
2023-03-16T06:56:47.122Z,13.60
2023-03-16T06:59:14.348Z,13.27
2023-03-16T07:01:42.389Z,13.13
2023-03-16T07:04:09.717Z,13.63
2023-03-16T07:06:41.655Z,14.03
2023-03-16T07:09:09.521Z,13.13
2023-03-16T07:11:36.803Z,12.90
2023-03-16T07:14:06.462Z,13.20
2023-03-16T07:16:34.361Z,13.80
2023-03-16T07:19:04.529Z,13.63
2023-03-16T07:21:39.434Z,13.60
2023-03-16T07:24:13.593Z,13.43
2023-03-16T07:26:42.384Z,13.57
2023-03-16T07:29:11.296Z,13.50
2023-03-16T07:31:40.232Z,13.83
2023-03-16T07:34:14.953Z,13.70
2023-03-16T07:36:53.564Z,13.90
2023-03-16T07:39:24.209Z,13.60
2023-03-16T07:41:57.790Z,13.60
2023-03-16T07:44:46.764Z,12.90
2023-03-16T07:47:14.709Z,13.07
2023-03-16T07:49:44.351Z,12.87
2023-03-16T07:52:13.851Z,13.00
2023-03-16T07:54:42.066Z,13.00
2023-03-16T07:57:10.287Z,13.20
2023-03-16T07:59:41.869Z,13.27
2023-03-16T08:02:14.560Z,13.20
2023-03-16T08:04:42.922Z,13.37
2023-03-16T08:07:14.432Z,11.50
2023-03-16T08:10:12.050Z,13.47
2023-03-16T08:12:49.399Z,13.17
2023-03-16T08:15:16.679Z,13.20
2023-03-16T08:17:45.891Z,13.03
2023-03-16T08:20:19.313Z,13.00
2023-03-16T08:22:51.081Z,12.87
2023-03-16T08:25:23.631Z,13.10
2023-03-16T08:28:03.309Z,13.00
2023-03-16T08:30:31.372Z,13.50
2023-03-16T08:33:29.455Z,12.13
2023-03-16T08:36:01.430Z,13.00
2023-03-16T08:38:28.984Z,12.60
2023-03-16T08:41:00.769Z,12.47
2023-03-16T08:43:28.024Z,12.40
2023-03-16T08:45:57.779Z,12.40
2023-03-16T08:48:29.002Z,13.00
2023-03-16T08:50:56.419Z,13.47
2023-03-16T08:53:23.446Z,12.97
2023-03-16T08:55:50.775Z,12.47
2023-03-16T08:58:18.027Z,12.70
2023-03-16T09:00:47.068Z,12.27
2023-03-16T09:03:15.678Z,12.43
2023-03-16T09:05:44.261Z,12.27
2023-03-16T09:08:15.516Z,12.50
2023-03-16T09:10:42.758Z,12.80
2023-03-16T09:13:09.809Z,12.80
2023-03-16T09:15:37.792Z,12.00
2023-03-16T09:18:05.858Z,12.33
2023-03-16T09:20:36.233Z,12.60
2023-03-16T09:23:04.581Z,12.60
2023-03-16T09:25:32.512Z,12.70
2023-03-16T09:28:00.844Z,13.10
2023-03-16T09:30:28.682Z,12.53
2023-03-16T09:32:59.720Z,13.03
2023-03-16T09:35:27.280Z,12.70
2023-03-16T09:38:05.708Z,12.43
2023-03-16T09:40:36.239Z,12.77
2023-03-16T09:43:44.031Z,12.77
2023-03-16T09:46:19.819Z,12.57
2023-03-16T09:48:49.063Z,12.47
2023-03-16T09:51:27.872Z,12.43
2023-03-16T09:54:03.191Z,12.70
2023-03-16T09:56:36.655Z,12.60
2023-03-16T09:59:12.166Z,13.00
2023-03-16T10:02:06.045Z,13.03
2023-03-16T10:05:02.766Z,12.97
2023-03-16T10:07:42.813Z,13.30
2023-03-16T10:10:11.245Z,13.23
2023-03-16T10:12:46.235Z,12.93
2023-03-16T10:15:17.219Z,12.97
2023-03-16T10:17:46.809Z,12.77
2023-03-16T10:20:18.066Z,12.83
2023-03-16T10:22:47.157Z,12.47
2023-03-16T10:25:26.143Z,12.57
2023-03-16T10:27:54.269Z,12.70
2023-03-16T10:30:38.773Z,12.60
2023-03-16T10:33:27.095Z,12.47
2023-03-16T10:36:29.100Z,12.70
2023-03-16T10:39:04.157Z,12.47
2023-03-16T10:41:34.251Z,12.50
2023-03-16T10:44:07.636Z,12.90
2023-03-16T10:46:48.735Z,13.03
2023-03-16T10:49:42.150Z,13.67
2023-03-16T10:52:17.098Z,13.67
2023-03-16T10:54:56.920Z,13.13
2023-03-16T10:57:25.708Z,13.07
2023-03-16T10:59:56.589Z,13.30
2023-03-16T11:02:35.535Z,12.83
2023-03-16T11:05:19.005Z,13.13
2023-03-16T11:07:59.081Z,13.73
2023-03-16T11:10:26.867Z,13.07
2023-03-16T11:12:54.224Z,13.20
2023-03-16T11:15:32.577Z,13.00
2023-03-16T11:18:01.160Z,12.80
2023-03-16T11:20:31.209Z,13.20
2023-03-16T11:23:00.672Z,12.67
2023-03-16T11:25:47.919Z,13.27
2023-03-16T11:28:46.493Z,12.90
2023-03-16T11:31:28.952Z,12.73
2023-03-16T11:33:57.690Z,13.13
2023-03-16T11:36:43.625Z,12.93
2023-03-16T11:39:22.995Z,12.83
2023-03-16T11:42:04.265Z,12.73
2023-03-16T11:44:50.676Z,13.20
2023-03-16T11:47:38.074Z,13.40
2023-03-16T11:50:20.776Z,13.23
2023-03-16T11:53:13.946Z,13.07
2023-03-16T11:56:02.479Z,12.93
2023-03-16T11:58:52.731Z,13.00
2023-03-16T12:01:59.837Z,12.90
2023-03-16T12:04:46.782Z,12.70
2023-03-16T12:07:33.670Z,12.53
2023-03-16T12:10:26.649Z,12.60
2023-03-16T12:12:53.780Z,12.33
2023-03-16T12:15:38.646Z,12.47
2023-03-16T12:18:21.415Z,12.77
2023-03-16T12:21:15.330Z,12.73
2023-03-16T12:23:54.107Z,13.07
2023-03-16T12:26:26.002Z,12.07
2023-03-16T12:28:55.406Z,12.27
2023-03-16T12:31:49.197Z,12.17
2023-03-16T12:34:24.476Z,12.03
2023-03-16T12:37:08.395Z,12.27
2023-03-16T12:40:15.788Z,12.23
2023-03-16T12:42:57.408Z,12.50
2023-03-16T12:45:37.313Z,12.50
2023-03-16T12:48:04.578Z,12.50
2023-03-16T12:50:33.806Z,12.57
2023-03-16T12:53:01.057Z,12.73
2023-03-16T12:55:34.858Z,12.60
2023-03-16T12:58:06.652Z,12.90
2023-03-16T13:00:36.124Z,12.70
2023-03-16T13:03:07.372Z,12.70
2023-03-16T13:05:36.729Z,12.57
2023-03-16T13:08:25.773Z,12.83
2023-03-16T13:11:06.784Z,13.10
2023-03-16T13:13:34.338Z,12.77
2023-03-16T13:16:12.244Z,12.47
2023-03-16T13:18:45.666Z,12.77
2023-03-16T13:21:37.246Z,13.17
2023-03-16T13:24:35.177Z,13.30
2023-03-16T13:27:06.577Z,12.67
2023-03-16T13:29:37.133Z,12.73
2023-03-16T13:32:18.633Z,12.70
2023-03-16T13:34:54.892Z,12.83
2023-03-16T13:37:24.364Z,12.43
2023-03-16T13:39:57.577Z,12.77
2023-03-16T13:42:26.779Z,12.50
2023-03-16T13:44:56.057Z,12.93
2023-03-16T13:47:26.713Z,12.60
2023-03-16T13:50:00.783Z,13.03
2023-03-16T13:52:35.694Z,12.87
2023-03-16T13:55:12.086Z,12.67
2023-03-16T13:57:42.235Z,12.70
2023-03-16T14:00:27.720Z,12.77
2023-03-16T14:03:04.472Z,13.23
2023-03-16T14:05:34.783Z,12.97
2023-03-16T14:08:05.061Z,13.03
2023-03-16T14:10:39.429Z,12.60
2023-03-16T14:13:22.273Z,13.17
2023-03-16T14:15:51.301Z,13.13
2023-03-16T14:18:23.166Z,13.47
2023-03-16T14:20:54.835Z,13.30
2023-03-16T14:23:30.651Z,13.47
2023-03-16T14:25:57.863Z,13.90
2023-03-16T14:28:33.210Z,13.67
2023-03-16T14:31:12.636Z,13.70
2023-03-16T14:33:46.207Z,13.00
2023-03-16T14:36:18.016Z,13.80
2023-03-16T14:38:48.975Z,13.83
2023-03-16T14:41:26.597Z,13.40
2023-03-16T14:43:59.840Z,13.80
2023-03-16T14:46:29.838Z,13.77
2023-03-16T14:49:20.395Z,14.00
2023-03-16T14:51:49.607Z,13.83
2023-03-16T14:54:18.611Z,13.93
2023-03-16T14:56:51.756Z,14.07
2023-03-16T14:59:19.870Z,14.00
2023-03-16T15:01:48.481Z,14.10
2023-03-16T15:04:31.448Z,13.97
2023-03-16T15:06:59.033Z,13.90
2023-03-16T15:09:40.320Z,14.37
2023-03-16T15:12:18.124Z,14.43
2023-03-16T15:15:07.467Z,14.10
2023-03-16T15:17:37.484Z,14.23
2023-03-16T15:20:05.659Z,14.03
2023-03-16T15:22:38.233Z,13.57
2023-03-16T15:25:17.043Z,14.57
2023-03-16T15:27:44.665Z,13.90
2023-03-16T15:30:20.898Z,13.80
2023-03-16T15:32:48.599Z,14.53
2023-03-16T15:35:16.110Z,14.50
2023-03-16T15:37:43.518Z,14.07
2023-03-16T15:40:28.470Z,14.07
2023-03-16T15:42:55.990Z,14.27
2023-03-16T15:45:23.896Z,14.47
2023-03-16T15:47:53.964Z,14.73
2023-03-16T15:50:24.870Z,14.40
2023-03-16T15:53:09.075Z,14.70
2023-03-16T15:55:40.389Z,14.40
2023-03-16T15:58:24.712Z,14.67
2023-03-16T16:00:55.629Z,14.47
2023-03-16T16:03:24.862Z,14.70
2023-03-16T16:05:53.482Z,14.57
2023-03-16T16:08:21.650Z,14.60
2023-03-16T16:10:50.446Z,14.70
2023-03-16T16:13:37.425Z,14.40
2023-03-16T16:16:13.697Z,15.00
2023-03-16T16:18:41.436Z,15.10
2023-03-16T16:21:19.803Z,14.60
2023-03-16T16:23:48.229Z,14.87
2023-03-16T16:26:48.179Z,14.57
2023-03-16T16:29:26.496Z,14.90
2023-03-16T16:31:53.892Z,15.13
2023-03-16T16:34:24.533Z,15.80
2023-03-16T16:36:52.475Z,15.00
2023-03-16T16:39:19.712Z,14.83
2023-03-16T16:41:50.676Z,15.13
2023-03-16T16:44:21.624Z,15.10
2023-03-16T16:46:50.422Z,15.30
2023-03-16T16:49:23.955Z,15.67
2023-03-16T16:51:53.226Z,14.90
2023-03-16T16:54:29.322Z,15.37
2023-03-16T16:56:58.280Z,15.33
2023-03-16T16:59:31.509Z,15.17
2023-03-16T17:02:00.406Z,15.13
2023-03-16T17:04:29.452Z,14.57
2023-03-16T17:06:59.031Z,15.37
2023-03-16T17:09:27.881Z,14.70
2023-03-16T17:11:59.069Z,14.87
2023-03-16T17:14:31.473Z,15.40
2023-03-16T17:17:04.973Z,15.17
2023-03-16T17:19:32.983Z,15.30
2023-03-16T17:22:00.169Z,15.43
2023-03-16T17:24:27.615Z,14.80
2023-03-16T17:26:58.723Z,15.00
2023-03-16T17:29:33.334Z,14.50
2023-03-16T17:32:03.129Z,14.97
2023-03-16T17:34:33.040Z,15.00
2023-03-16T17:37:00.401Z,15.50
2023-03-16T17:39:32.833Z,15.10
2023-03-16T17:42:10.980Z,14.47
2023-03-16T17:44:43.044Z,14.57
2023-03-16T17:47:17.393Z,14.17
2023-03-16T17:49:48.943Z,15.05
2023-03-16T17:52:19.657Z,14.80
2023-03-16T17:54:52.335Z,14.17
2023-03-16T17:57:31.175Z,14.77
2023-03-16T18:00:00.541Z,14.87
2023-03-16T18:02:30.150Z,14.67
2023-03-16T18:04:57.244Z,14.73
2023-03-16T18:07:34.661Z,14.77
2023-03-16T18:10:04.605Z,14.77
2023-03-16T18:12:31.958Z,14.50
2023-03-16T18:14:58.985Z,14.30
2023-03-16T18:17:31.273Z,14.83
2023-03-16T18:20:01.717Z,14.60
2023-03-16T18:22:35.170Z,14.20
2023-03-16T18:25:02.388Z,14.63
2023-03-16T18:27:35.133Z,14.43
2023-03-16T18:30:02.233Z,14.30
2023-03-16T18:32:31.002Z,14.40
2023-03-16T18:34:58.728Z,14.37
2023-03-16T18:37:28.384Z,14.50
2023-03-16T18:39:56.889Z,14.23
2023-03-16T18:42:30.315Z,13.97
2023-03-16T18:44:57.928Z,14.43
2023-03-16T18:47:31.848Z,14.77
2023-03-16T18:50:00.392Z,14.40
2023-03-16T18:52:29.479Z,15.50
2023-03-16T18:54:58.385Z,14.90
2023-03-16T18:57:28.122Z,15.23
2023-03-16T18:59:55.710Z,15.07
2023-03-16T19:02:38.865Z,14.53
2023-03-16T19:05:13.020Z,14.37
2023-03-16T19:07:44.712Z,15.27
2023-03-16T19:10:28.051Z,14.77
2023-03-16T19:12:55.966Z,14.77
2023-03-16T19:15:28.024Z,14.60
2023-03-16T19:17:55.679Z,14.93
2023-03-16T19:20:28.983Z,14.70
2023-03-16T19:23:23.790Z,14.37
2023-03-16T19:26:00.510Z,14.83
2023-03-16T19:28:36.685Z,14.30
2023-03-16T19:31:11.490Z,14.63
2023-03-16T19:33:40.097Z,14.57
2023-03-16T19:36:14.097Z,14.63
2023-03-16T19:38:41.329Z,14.77
2023-03-16T19:41:27.112Z,14.83
2023-03-16T19:43:58.299Z,14.87
2023-03-16T19:46:29.755Z,14.90
2023-03-16T19:48:57.281Z,14.73
2023-03-16T19:51:26.142Z,15.00
2023-03-16T19:53:56.617Z,14.83
2023-03-16T19:56:26.626Z,14.43
2023-03-16T19:58:54.833Z,14.97
2023-03-16T20:01:26.647Z,14.90
2023-03-16T20:03:55.420Z,14.47
2023-03-16T20:06:24.221Z,15.30
2023-03-16T20:08:51.797Z,15.33
2023-03-16T20:11:21.571Z,14.90
2023-03-16T20:13:49.462Z,14.30
2023-03-16T20:16:22.330Z,15.03
2023-03-16T20:18:54.006Z,15.00
2023-03-16T20:21:21.550Z,14.90
2023-03-16T20:23:48.917Z,13.97
2023-03-16T20:26:19.068Z,14.40
2023-03-16T20:28:49.752Z,14.77
2023-03-16T20:31:21.274Z,14.50
2023-03-16T20:33:49.595Z,14.80
2023-03-16T20:36:18.544Z,14.83
2023-03-16T20:38:46.819Z,14.80
2023-03-16T20:41:32.797Z,14.13
2023-03-16T20:44:02.254Z,14.93
2023-03-16T20:46:32.476Z,14.70
2023-03-16T20:49:00.873Z,14.63
2023-03-16T20:51:29.121Z,14.30
2023-03-16T20:53:56.377Z,15.00
2023-03-16T20:56:29.210Z,14.77
2023-03-16T20:58:56.762Z,15.07
2023-03-16T21:01:24.770Z,14.70
2023-03-16T21:03:55.522Z,14.80
2023-03-16T21:06:24.168Z,14.43
2023-03-16T21:08:55.633Z,14.57
2023-03-16T21:11:36.864Z,14.50
2023-03-16T21:14:15.486Z,14.63
2023-03-16T21:16:42.923Z,14.43
2023-03-16T21:19:18.564Z,14.57
2023-03-16T21:21:46.666Z,14.70
2023-03-16T21:24:13.717Z,14.70
2023-03-16T21:26:42.895Z,14.60
2023-03-16T21:29:23.912Z,14.63
2023-03-16T21:31:51.996Z,14.50
2023-03-16T21:34:25.798Z,15.00
2023-03-16T21:36:53.353Z,14.97
2023-03-16T21:39:23.846Z,14.73
2023-03-16T21:41:52.788Z,14.53
2023-03-16T21:44:19.933Z,14.17
2023-03-16T21:46:50.174Z,13.40
2023-03-16T21:49:18.134Z,13.77
2023-03-16T21:51:45.120Z,13.80
2023-03-16T21:54:16.945Z,14.10
2023-03-16T21:56:45.056Z,14.13
2023-03-16T21:59:12.465Z,14.97
2023-03-16T22:01:58.311Z,14.30
2023-03-16T22:04:30.468Z,14.20
2023-03-16T22:06:57.499Z,14.60
2023-03-16T22:09:30.172Z,14.03
2023-03-16T22:11:57.624Z,13.50
2023-03-16T22:14:24.688Z,13.87
2023-03-16T22:16:51.825Z,14.03
2023-03-16T22:19:19.708Z,14.07
2023-03-16T22:21:47.923Z,14.37
2023-03-16T22:24:22.396Z,14.60
2023-03-16T22:26:50.947Z,14.17
2023-03-16T22:29:20.987Z,13.90
2023-03-16T22:31:48.891Z,13.97
2023-03-16T22:34:27.240Z,14.50
2023-03-16T22:36:55.076Z,14.03
2023-03-16T22:39:22.252Z,13.67
2023-03-16T22:41:49.541Z,14.33
2023-03-16T22:44:25.564Z,13.87
2023-03-16T22:46:52.909Z,14.00
2023-03-16T22:49:24.772Z,14.00
2023-03-16T22:51:55.675Z,14.13
2023-03-16T22:54:27.390Z,13.90
2023-03-16T22:56:54.846Z,14.60
2023-03-16T22:59:25.352Z,14.50
2023-03-16T23:01:53.720Z,14.20
2023-03-16T23:04:24.764Z,14.07
2023-03-16T23:06:53.840Z,14.20
2023-03-16T23:09:22.192Z,14.33
2023-03-16T23:11:54.271Z,14.03
2023-03-16T23:14:24.287Z,13.73
2023-03-16T23:16:54.915Z,13.10
2023-03-16T23:19:32.004Z,13.27
2023-03-16T23:22:02.361Z,13.17
2023-03-16T23:24:30.273Z,13.77
2023-03-16T23:26:58.047Z,13.40
2023-03-16T23:29:26.510Z,13.67
2023-03-16T23:31:54.070Z,14.07
2023-03-16T23:34:24.109Z,13.77
2023-03-16T23:36:51.957Z,14.03
2023-03-16T23:39:20.109Z,13.83
2023-03-16T23:41:50.968Z,14.03
2023-03-16T23:44:22.433Z,14.20
2023-03-16T23:46:51.171Z,14.23
2023-03-16T23:49:20.316Z,14.10
2023-03-16T23:51:47.562Z,13.97
2023-03-16T23:54:23.571Z,14.20
2023-03-16T23:56:51.334Z,13.77
2023-03-16T23:59:20.464Z,13.60
